Аэропорт: Усть-Каменогорск. Усть-Каменогорск

ICAO: UASK

METAR:
2019-09-21 16:00:00
UASK 211600Z 12001MPS 9999 NSC 11/06 Q1019 R30/090060 NOSIG RMK QFE738/0985
METAR:
Информация по данной станции не доступна